createdAt,value
2022-08-05T00:00:20.939Z,15.79
2022-08-05T00:02:52.403Z,14.59
2022-08-05T00:06:01.839Z,15.46
2022-08-05T00:08:32.511Z,14.64
2022-08-05T00:10:53.961Z,15.36
2022-08-05T00:13:20.693Z,15.23
2022-08-05T00:16:05.891Z,15.76
2022-08-05T00:18:35.191Z,15.95
2022-08-05T00:21:01.838Z,14.54
2022-08-05T00:23:44.287Z,15.37
2022-08-05T00:26:13.689Z,16.29
2022-08-05T00:28:43.108Z,15.65
2022-08-05T00:31:12.479Z,15.08
2022-08-05T00:34:55.706Z,15.40
2022-08-05T00:37:13.245Z,16.18
2022-08-05T00:39:41.538Z,15.33
2022-08-05T00:46:03.479Z,15.93
2022-08-05T00:48:31.774Z,15.79
2022-08-05T00:50:58.495Z,15.13
2022-08-05T00:54:00.868Z,13.88
2022-08-05T00:56:12.100Z,15.00
2022-08-05T00:58:39.016Z,14.97
2022-08-05T01:01:10.527Z,15.37
2022-08-05T01:03:38.366Z,15.68
2022-08-05T01:06:05.721Z,14.82
2022-08-05T01:08:42.680Z,15.24
2022-08-05T01:11:33.476Z,15.80
2022-08-05T01:14:08.571Z,15.41
2022-08-05T01:16:54.807Z,14.86
2022-08-05T01:20:00.977Z,14.89
2022-08-05T01:22:42.018Z,15.57
2022-08-05T01:25:59.044Z,15.45
2022-08-05T01:28:36.226Z,15.47
2022-08-05T01:31:23.023Z,15.45
2022-08-05T01:34:14.957Z,15.02
2022-08-05T01:36:47.700Z,14.73
2022-08-05T01:39:15.763Z,14.31
2022-08-05T01:42:02.489Z,14.63
2022-08-05T01:44:34.377Z,14.00
2022-08-05T01:47:02.380Z,14.40
2022-08-05T01:50:00.398Z,13.74
2022-08-05T01:52:19.436Z,13.81
2022-08-05T01:54:48.717Z,14.26
2022-08-05T01:58:10.130Z,14.47
2022-08-05T02:00:12.093Z,14.56
2022-08-05T02:02:46.574Z,15.14
2022-08-05T02:05:18.117Z,14.20
2022-08-05T02:07:59.808Z,14.35
2022-08-05T02:10:28.653Z,13.98
2022-08-05T02:12:57.067Z,15.00
2022-08-05T02:15:33.368Z,15.15
2022-08-05T02:18:28.045Z,15.14
2022-08-05T02:20:52.298Z,15.11
2022-08-05T02:23:21.025Z,13.52
2022-08-05T02:25:49.161Z,14.84
2022-08-05T02:28:16.355Z,13.81
2022-08-05T02:31:14.282Z,13.95
2022-08-05T02:33:45.098Z,14.39
2022-08-05T02:36:16.683Z,14.25
2022-08-05T02:38:53.656Z,13.94
2022-08-05T02:41:21.120Z,14.69
2022-08-05T02:44:06.514Z,14.36
2022-08-05T02:46:58.554Z,14.36
2022-08-05T02:49:40.409Z,14.82
2022-08-05T02:52:11.422Z,14.32
2022-08-05T02:54:41.420Z,13.89
2022-08-05T02:58:11.319Z,13.73
2022-08-05T02:59:59.367Z,13.68
2022-08-05T03:02:31.065Z,14.19
2022-08-05T03:04:57.927Z,14.12
2022-08-05T03:08:00.292Z,14.05
2022-08-05T03:10:14.672Z,14.06
2022-08-05T03:12:41.383Z,13.39
2022-08-05T03:15:12.218Z,13.76
2022-08-05T03:17:41.529Z,13.06
2022-08-05T03:20:10.282Z,13.15
2022-08-05T03:22:37.093Z,13.55
2022-08-05T03:25:31.640Z,14.00
2022-08-05T03:28:00.109Z,13.04
2022-08-05T03:30:28.705Z,13.08
2022-08-05T03:33:01.829Z,14.05
2022-08-05T03:35:28.862Z,14.49
2022-08-05T03:37:59.316Z,13.74
2022-08-05T03:40:32.289Z,13.38
2022-08-05T03:43:16.001Z,13.64
2022-08-05T03:45:57.469Z,13.78
2022-08-05T03:48:25.294Z,13.94
2022-08-05T03:52:37.668Z,14.62
2022-08-05T03:56:01.873Z,14.61
2022-08-05T03:57:02.481Z,13.34
2022-08-05T04:00:15.518Z,14.43
2022-08-05T04:02:57.660Z,14.33
2022-08-05T04:05:27.919Z,14.69
2022-08-05T04:08:05.698Z,14.10
2022-08-05T04:10:41.093Z,14.74
2022-08-05T04:13:08.233Z,13.48
2022-08-05T04:15:36.070Z,14.28
2022-08-05T04:18:06.825Z,14.07
2022-08-05T04:20:34.582Z,13.68
2022-08-05T04:23:01.635Z,14.08
2022-08-05T04:25:57.496Z,13.47
2022-08-05T04:28:15.506Z,14.01
2022-08-05T04:30:44.042Z,13.80
2022-08-05T04:33:10.744Z,13.82
2022-08-05T04:36:15.723Z,13.94
2022-08-05T04:38:39.293Z,14.22
2022-08-05T04:41:07.332Z,15.19
2022-08-05T04:43:36.081Z,14.69
2022-08-05T04:46:05.102Z,14.20
2022-08-05T04:48:32.051Z,15.31
2022-08-05T04:51:03.075Z,14.49
2022-08-05T04:53:36.650Z,14.69
2022-08-05T04:56:33.487Z,15.31
2022-08-05T04:58:54.076Z,14.76
2022-08-05T05:01:33.822Z,14.21
2022-08-05T05:04:07.411Z,14.56
2022-08-05T05:06:36.550Z,15.23
2022-08-05T05:09:14.044Z,15.31
2022-08-05T05:11:54.431Z,15.75
2022-08-05T05:14:31.287Z,15.61
2022-08-05T05:17:03.485Z,17.43
2022-08-05T05:19:36.358Z,19.38
2022-08-05T05:22:24.320Z,21.69
2022-08-05T05:24:57.335Z,23.27
2022-08-05T05:27:44.544Z,25.23
2022-08-05T05:30:33.526Z,27.36
2022-08-05T05:33:08.878Z,27.66
2022-08-05T05:35:43.908Z,30.19
2022-08-05T05:38:13.441Z,31.49
2022-08-05T05:40:48.347Z,32.81
2022-08-05T05:43:22.406Z,34.24
2022-08-05T05:46:05.243Z,34.55
2022-08-05T05:48:34.476Z,35.69
2022-08-05T05:51:14.804Z,36.43
2022-08-05T05:53:54.606Z,37.31
2022-08-05T05:56:33.065Z,37.93
2022-08-05T05:59:03.292Z,38.75
2022-08-05T06:01:37.103Z,39.23
2022-08-05T06:04:05.559Z,40.04
2022-08-05T06:06:34.845Z,40.75
2022-08-05T06:09:03.191Z,40.60
2022-08-05T06:11:30.931Z,41.82
2022-08-05T06:13:57.932Z,42.25
2022-08-05T06:16:36.989Z,43.14
2022-08-05T06:19:05.893Z,43.32
2022-08-05T06:21:49.773Z,44.16
2022-08-05T06:24:16.607Z,44.04
2022-08-05T06:26:53.297Z,44.42
2022-08-05T06:29:25.444Z,44.66
2022-08-05T06:32:26.386Z,45.50
2022-08-05T06:34:56.283Z,44.95
2022-08-05T06:37:58.381Z,45.01
2022-08-05T06:40:12.202Z,45.83
2022-08-05T06:42:39.910Z,46.24
2022-08-05T06:45:08.513Z,46.41
2022-08-05T06:48:44.195Z,46.99
2022-08-05T06:50:22.882Z,46.82
2022-08-05T06:53:03.638Z,47.05
2022-08-05T06:55:37.107Z,47.75
2022-08-05T06:58:29.804Z,47.02
2022-08-05T07:00:50.962Z,45.46
2022-08-05T07:03:17.759Z,43.76
2022-08-05T07:05:46.466Z,43.34
2022-08-05T07:08:13.381Z,41.83
2022-08-05T07:10:53.294Z,40.07
2022-08-05T07:13:57.748Z,39.68
2022-08-05T07:18:02.351Z,40.14
2022-08-05T07:22:29.133Z,39.77
2022-08-05T07:25:23.058Z,38.16
2022-08-05T07:27:58.421Z,37.83
2022-08-05T07:30:33.741Z,36.27
2022-08-05T07:33:09.469Z,36.11
2022-08-05T07:36:05.299Z,35.61
2022-08-05T07:38:34.006Z,35.06
2022-08-05T07:42:06.759Z,34.39
2022-08-05T07:43:52.688Z,33.97
2022-08-05T07:46:25.298Z,33.45
2022-08-05T07:49:02.408Z,33.12
2022-08-05T07:51:48.719Z,32.47
2022-08-05T07:54:26.637Z,30.81
2022-08-05T07:57:01.582Z,31.10
2022-08-05T07:59:41.899Z,31.18
2022-08-05T08:02:16.660Z,30.79
2022-08-05T08:04:48.323Z,30.64
2022-08-05T08:07:16.193Z,30.65
2022-08-05T08:09:44.971Z,30.22
2022-08-05T08:12:33.323Z,29.86
2022-08-05T08:15:03.517Z,30.30
2022-08-05T08:17:31.993Z,30.38
2022-08-05T08:20:21.051Z,30.72
2022-08-05T08:22:51.687Z,30.59
2022-08-05T08:25:27.101Z,30.46
2022-08-05T08:28:06.177Z,30.15
2022-08-05T08:30:47.723Z,30.77
2022-08-05T08:33:16.694Z,29.99
2022-08-05T08:35:53.180Z,30.19
2022-08-05T08:38:35.362Z,30.37
2022-08-05T08:41:08.611Z,30.86
2022-08-05T08:45:20.486Z,30.63
2022-08-05T08:46:24.494Z,30.31
2022-08-05T08:49:04.175Z,31.11
2022-08-05T08:52:02.874Z,29.65
2022-08-05T08:54:27.201Z,31.29
2022-08-05T08:56:54.195Z,31.07
2022-08-05T08:59:23.179Z,30.64
2022-08-05T09:01:57.397Z,31.16
2022-08-05T09:04:30.315Z,30.70
2022-08-05T09:06:57.577Z,31.23
2022-08-05T09:09:25.085Z,31.27
2022-08-05T09:11:55.296Z,31.06
2022-08-05T09:14:57.811Z,31.50
2022-08-05T09:17:39.993Z,31.33
2022-08-05T09:20:02.953Z,30.83
2022-08-05T09:23:07.736Z,31.34
2022-08-05T09:26:02.156Z,30.56
2022-08-05T09:28:32.478Z,31.09
2022-08-05T09:31:23.318Z,31.11
2022-08-05T09:33:56.180Z,30.60
2022-08-05T09:36:27.668Z,31.08
2022-08-05T09:39:18.169Z,30.37
2022-08-05T09:41:56.152Z,30.29
2022-08-05T09:44:50.484Z,31.70
2022-08-05T09:47:22.620Z,31.25
2022-08-05T09:50:00.966Z,30.86
2022-08-05T09:52:32.598Z,31.62
2022-08-05T09:55:55.199Z,30.26
2022-08-05T09:57:54.805Z,31.66
2022-08-05T10:00:26.362Z,30.91
2022-08-05T10:02:58.295Z,31.08
2022-08-05T10:05:29.065Z,31.09
2022-08-05T10:08:35.741Z,30.66
2022-08-05T10:10:54.050Z,30.92
2022-08-05T10:13:48.186Z,31.36
2022-08-05T10:16:52.472Z,31.55
2022-08-05T10:19:23.685Z,31.49
2022-08-05T10:22:07.556Z,31.56
2022-08-05T10:24:35.798Z,31.32
2022-08-05T10:27:07.607Z,31.51
2022-08-05T10:30:41.581Z,31.48
2022-08-05T10:32:53.400Z,31.57
2022-08-05T10:35:10.388Z,31.54
2022-08-05T10:37:40.322Z,31.50
2022-08-05T10:40:49.432Z,31.71
2022-08-05T10:43:36.593Z,31.78
2022-08-05T10:46:07.078Z,31.19
2022-08-05T10:48:57.276Z,31.91
2022-08-05T10:51:28.818Z,31.70
2022-08-05T10:54:01.509Z,31.89
2022-08-05T10:56:44.845Z,31.76
2022-08-05T11:00:03.363Z,32.12
2022-08-05T11:02:37.620Z,32.09
2022-08-05T11:05:07.286Z,32.31
2022-08-05T11:08:01.123Z,32.37
2022-08-05T11:10:27.761Z,32.25
2022-08-05T11:12:57.047Z,32.38
2022-08-05T11:15:44.025Z,31.96
2022-08-05T11:18:30.141Z,32.21
2022-08-05T11:20:59.491Z,32.32
2022-08-05T11:23:49.843Z,32.47
2022-08-05T11:26:28.129Z,32.63
2022-08-05T11:29:06.971Z,32.07
2022-08-05T11:31:58.580Z,31.25
2022-08-05T11:34:37.334Z,32.34
2022-08-05T11:38:14.270Z,32.03
2022-08-05T11:40:00.376Z,32.17
2022-08-05T11:42:31.584Z,32.31
2022-08-05T11:45:03.012Z,32.39
2022-08-05T11:47:49.843Z,32.14
2022-08-05T11:50:17.611Z,31.67
2022-08-05T11:52:48.786Z,31.58
2022-08-05T11:55:16.301Z,32.49
2022-08-05T11:58:10.968Z,32.44
2022-08-05T12:00:37.790Z,32.36
2022-08-05T12:03:32.015Z,32.65
2022-08-05T12:06:09.747Z,32.39
2022-08-05T12:09:04.229Z,32.34
2022-08-05T12:11:39.891Z,32.24
2022-08-05T12:14:08.503Z,31.75
2022-08-05T12:16:45.361Z,32.38
2022-08-05T12:20:16.634Z,32.42
2022-08-05T12:22:00.004Z,32.67
2022-08-05T12:24:27.980Z,32.39
2022-08-05T12:26:54.817Z,32.80
2022-08-05T12:29:27.176Z,32.72
2022-08-05T12:31:58.045Z,32.58
2022-08-05T12:34:33.066Z,32.01
2022-08-05T12:37:10.780Z,32.62
2022-08-05T12:39:44.585Z,32.79
2022-08-05T12:42:20.038Z,32.60
2022-08-05T12:44:47.437Z,32.51
2022-08-05T12:47:17.827Z,32.74
2022-08-05T12:50:04.748Z,32.76
2022-08-05T12:52:38.931Z,32.51
2022-08-05T12:55:25.629Z,32.79
2022-08-05T12:58:52.425Z,32.20
2022-08-05T13:02:01.166Z,32.91
2022-08-05T13:03:32.178Z,32.59
2022-08-05T13:06:00.901Z,32.77
2022-08-05T13:08:30.129Z,32.69
2022-08-05T13:11:04.094Z,32.29
2022-08-05T13:14:06.089Z,32.70
2022-08-05T13:16:19.932Z,32.21
2022-08-05T13:22:29.180Z,32.47
2022-08-05T13:25:00.431Z,32.32
2022-08-05T13:27:38.213Z,32.07
2022-08-05T13:30:33.618Z,32.60
2022-08-05T13:32:54.051Z,32.29
2022-08-05T13:35:43.338Z,31.64
2022-08-05T13:38:15.717Z,32.22
2022-08-05T13:40:55.312Z,32.37
2022-08-05T13:43:22.458Z,32.30
2022-08-05T13:49:54.358Z,32.02
2022-08-05T13:52:29.177Z,31.89
2022-08-05T13:54:56.650Z,32.20
2022-08-05T13:57:26.320Z,32.05
2022-08-05T14:00:13.155Z,32.51
2022-08-05T14:02:40.026Z,32.55
2022-08-05T14:05:29.200Z,32.54
2022-08-05T14:08:03.233Z,32.42
2022-08-05T14:10:37.443Z,31.86
2022-08-05T14:13:05.857Z,31.25
2022-08-05T14:16:04.882Z,31.85
2022-08-05T14:18:23.517Z,32.97
2022-08-05T14:20:54.982Z,32.92
2022-08-05T14:23:25.671Z,32.24
2022-08-05T14:25:58.909Z,32.28
2022-08-05T14:28:28.144Z,32.34
2022-08-05T14:30:56.188Z,32.51
2022-08-05T14:33:24.049Z,32.87
2022-08-05T14:35:51.753Z,32.01
2022-08-05T14:38:32.405Z,32.03
2022-08-05T14:41:02.061Z,31.82
2022-08-05T14:43:53.924Z,32.53
2022-08-05T14:46:20.175Z,31.91
2022-08-05T14:48:49.323Z,31.59
2022-08-05T14:51:17.566Z,32.63
2022-08-05T14:53:45.040Z,32.42
2022-08-05T14:56:13.437Z,31.86
2022-08-05T14:58:47.927Z,31.71
2022-08-05T15:01:47.010Z,30.97
2022-08-05T15:04:11.495Z,31.88
2022-08-05T15:06:38.910Z,31.52
2022-08-05T15:09:07.145Z,31.17
2022-08-05T15:11:50.968Z,30.79
2022-08-05T15:14:33.396Z,30.42
2022-08-05T15:17:03.968Z,31.19
2022-08-05T15:19:31.170Z,31.99
2022-08-05T15:22:00.175Z,31.77
2022-08-05T15:24:28.346Z,31.35
2022-08-05T15:26:56.038Z,32.22
2022-08-05T15:29:23.856Z,31.68
2022-08-05T15:31:57.438Z,31.40
2022-08-05T15:34:33.232Z,30.53
2022-08-05T15:37:05.094Z,30.62
2022-08-05T15:40:59.098Z,31.69
2022-08-05T15:42:54.400Z,30.86
2022-08-05T15:45:09.915Z,31.25
2022-08-05T15:47:37.139Z,30.85
2022-08-05T15:50:07.266Z,31.51
2022-08-05T15:52:54.782Z,30.64
2022-08-05T15:55:24.580Z,31.43
2022-08-05T15:57:52.170Z,31.63
2022-08-05T16:00:32.750Z,31.08
2022-08-05T16:03:06.737Z,30.43
2022-08-05T16:05:33.833Z,29.97
2022-08-05T16:08:00.922Z,30.70
2022-08-05T16:10:27.853Z,30.65
2022-08-05T16:12:56.317Z,30.30
2022-08-05T16:15:23.656Z,30.33
2022-08-05T16:17:57.702Z,30.84
2022-08-05T16:20:25.617Z,29.44
2022-08-05T16:22:54.894Z,30.49
2022-08-05T16:25:24.162Z,29.96
2022-08-05T16:28:06.079Z,30.90
2022-08-05T16:30:34.209Z,30.88
2022-08-05T16:33:03.134Z,30.66
2022-08-05T16:35:32.588Z,30.39
2022-08-05T16:38:00.651Z,30.61
2022-08-05T16:40:47.859Z,30.49
2022-08-05T16:43:23.881Z,30.37
2022-08-05T16:46:06.776Z,30.17
2022-08-05T16:48:37.750Z,30.73
2022-08-05T16:51:10.141Z,30.63
2022-08-05T16:54:02.450Z,29.17
2022-08-05T16:56:25.648Z,30.35
2022-08-05T16:58:52.369Z,30.68
2022-08-05T17:01:21.665Z,30.21
2022-08-05T17:03:51.931Z,30.13
2022-08-05T17:06:19.087Z,29.52
2022-08-05T17:08:53.047Z,30.26
2022-08-05T17:11:25.159Z,29.91
2022-08-05T17:14:06.243Z,30.04
2022-08-05T17:16:37.223Z,30.13
2022-08-05T17:19:09.545Z,29.36
2022-08-05T17:21:37.469Z,29.38
2022-08-05T17:24:14.260Z,29.62
2022-08-05T17:26:52.658Z,28.54
2022-08-05T17:29:22.749Z,28.41
2022-08-05T17:31:59.661Z,29.49
2022-08-05T17:34:30.084Z,29.39
2022-08-05T17:37:00.130Z,29.05
2022-08-05T17:39:33.611Z,28.82
2022-08-05T17:42:18.520Z,28.47
2022-08-05T17:44:51.100Z,28.12
2022-08-05T17:47:22.226Z,27.68
2022-08-05T17:50:00.372Z,28.03
2022-08-05T17:52:53.265Z,26.56
2022-08-05T17:55:22.401Z,27.05
2022-08-05T17:57:50.303Z,27.24
2022-08-05T18:00:17.581Z,27.32
2022-08-05T18:02:46.935Z,26.96
2022-08-05T18:05:16.717Z,26.73
2022-08-05T18:07:44.722Z,26.66
2022-08-05T18:10:20.395Z,26.55
2022-08-05T18:12:48.780Z,26.09
2022-08-05T18:15:15.534Z,25.66
2022-08-05T18:18:01.654Z,24.38
2022-08-05T18:20:31.862Z,25.88
2022-08-05T18:23:00.600Z,25.31
2022-08-05T18:25:38.843Z,25.28
2022-08-05T18:28:06.190Z,25.21
2022-08-05T18:30:33.594Z,23.74
2022-08-05T18:33:01.285Z,24.70
2022-08-05T18:36:00.774Z,24.89
2022-08-05T18:38:18.933Z,24.56
2022-08-05T18:41:56.091Z,24.88
2022-08-05T18:43:38.021Z,24.46
2022-08-05T18:46:10.869Z,24.68
2022-08-05T18:48:41.845Z,24.40
2022-08-05T18:52:04.882Z,24.37
2022-08-05T18:54:14.150Z,24.43
2022-08-05T18:56:41.904Z,23.98
2022-08-05T18:59:43.751Z,23.48
2022-08-05T19:02:04.832Z,23.86
2022-08-05T19:05:02.073Z,23.19
2022-08-05T19:07:25.241Z,23.71
2022-08-05T19:09:56.757Z,23.73
2022-08-05T19:12:23.572Z,23.42
2022-08-05T19:15:00.599Z,23.70
2022-08-05T19:17:59.158Z,23.36
2022-08-05T19:20:16.376Z,23.54
2022-08-05T19:22:44.149Z,23.50
2022-08-05T19:25:11.046Z,23.27
2022-08-05T19:27:56.482Z,23.11
2022-08-05T19:30:23.259Z,23.23
2022-08-05T19:32:50.516Z,23.17
2022-08-05T19:35:17.421Z,23.05
2022-08-05T19:38:06.211Z,21.83
2022-08-05T19:40:35.158Z,22.51
2022-08-05T19:43:05.513Z,23.02
2022-08-05T19:45:36.535Z,22.52
2022-08-05T19:48:04.458Z,22.56
2022-08-05T19:50:32.088Z,22.67
2022-08-05T19:52:58.835Z,22.60
2022-08-05T19:56:14.202Z,22.83
2022-08-05T19:58:28.609Z,22.69
2022-08-05T20:00:56.583Z,22.09
2022-08-05T20:03:25.372Z,22.28
2022-08-05T20:05:56.652Z,21.58
2022-08-05T20:08:24.305Z,22.25
2022-08-05T20:10:51.690Z,21.98
2022-08-05T20:13:30.146Z,21.81
2022-08-05T20:16:05.867Z,22.14
2022-08-05T20:18:35.878Z,21.91
2022-08-05T20:21:04.729Z,21.44
2022-08-05T20:23:39.873Z,21.69
2022-08-05T20:26:17.525Z,21.62
2022-08-05T20:28:51.487Z,21.64
2022-08-05T20:31:21.721Z,21.35
2022-08-05T20:33:50.153Z,21.30
2022-08-05T20:36:18.048Z,20.92
2022-08-05T20:38:54.634Z,21.35
2022-08-05T20:41:27.485Z,20.74
2022-08-05T20:44:18.744Z,21.27
2022-08-05T20:46:56.833Z,21.11
2022-08-05T20:49:24.401Z,21.15
2022-08-05T20:51:53.824Z,20.74
2022-08-05T20:54:20.780Z,20.61
2022-08-05T20:56:47.523Z,20.63
2022-08-05T20:59:27.119Z,19.63
2022-08-05T21:02:06.010Z,20.55
2022-08-05T21:04:33.686Z,20.52
2022-08-05T21:07:00.378Z,20.85
2022-08-05T21:09:27.253Z,21.20
2022-08-05T21:12:08.867Z,20.81
2022-08-05T21:14:38.011Z,20.07
2022-08-05T21:17:05.429Z,20.82
2022-08-05T21:19:47.268Z,20.58
2022-08-05T21:22:21.780Z,20.38
2022-08-05T21:24:51.921Z,20.76
2022-08-05T21:27:20.521Z,20.83
2022-08-05T21:29:51.572Z,20.34
2022-08-05T21:32:19.941Z,20.73
2022-08-05T21:35:08.262Z,20.65
2022-08-05T21:37:33.555Z,20.64
2022-08-05T21:40:04.476Z,20.31
2022-08-05T21:42:44.220Z,19.83
2022-08-05T21:45:24.599Z,20.34
2022-08-05T21:47:56.672Z,20.55
2022-08-05T21:50:26.256Z,20.41
2022-08-05T21:52:53.313Z,20.35
2022-08-05T21:55:43.115Z,20.14
2022-08-05T21:58:10.219Z,20.29
2022-08-05T22:00:38.399Z,19.89
2022-08-05T22:03:06.942Z,18.92
2022-08-05T22:05:48.623Z,20.17
2022-08-05T22:08:22.073Z,19.82
2022-08-05T22:10:49.788Z,20.00
2022-08-05T22:14:32.725Z,20.12
2022-08-05T22:16:15.769Z,20.17
2022-08-05T22:18:50.477Z,20.15
2022-08-05T22:21:18.995Z,20.04
2022-08-05T22:24:12.967Z,20.10
2022-08-05T22:27:11.047Z,20.03
2022-08-05T22:29:43.449Z,19.81
2022-08-05T22:32:10.280Z,19.64
2022-08-05T22:34:36.922Z,19.24
2022-08-05T22:37:04.722Z,19.65
2022-08-05T22:39:33.884Z,19.80
2022-08-05T22:42:11.175Z,19.31
2022-08-05T22:44:39.918Z,19.48
2022-08-05T22:47:06.959Z,19.76
2022-08-05T22:50:20.986Z,19.20
2022-08-05T22:52:30.653Z,19.84
2022-08-05T22:55:00.876Z,19.57
2022-08-05T22:57:36.242Z,19.12
2022-08-05T23:00:06.206Z,19.50
2022-08-05T23:02:35.608Z,19.34
2022-08-05T23:05:13.101Z,19.05
2022-08-05T23:07:44.855Z,19.23
2022-08-05T23:10:16.291Z,19.79
2022-08-05T23:12:47.275Z,19.43
2022-08-05T23:15:18.040Z,19.71
2022-08-05T23:18:01.435Z,19.55
2022-08-05T23:20:30.393Z,19.92
2022-08-05T23:22:58.789Z,19.65
2022-08-05T23:25:54.685Z,19.25
2022-08-05T23:28:12.763Z,19.70
2022-08-05T23:30:43.445Z,19.49
2022-08-05T23:33:16.300Z,18.90
2022-08-05T23:35:50.336Z,19.36
2022-08-05T23:38:17.217Z,19.77
2022-08-05T23:40:49.553Z,19.72
2022-08-05T23:43:25.472Z,19.48
2022-08-05T23:46:20.649Z,19.72
2022-08-05T23:49:00.412Z,19.71
2022-08-05T23:51:53.933Z,19.74
2022-08-05T23:54:38.053Z,19.76
2022-08-05T23:57:05.809Z,19.24
